Thunder radar more information blitzortung!


Radar de pluja more information rain snow radar


Visita la nostra xarxa de llocs de meteo:

Template documentation
and downloads

And another site



No particular awareness of the weather is required.    There are no Weather-warnings

Pagina Historial Weather Underground text

Diari Resum May 12, 2017 Unitats:  Imperial    Mètric   Tant
« Previous Dia
SegĂźent Dia »
Diari Setmana Mensual Anual Personalitzada
  Maxima: Minima: Media:
Temperatura: TemperatureC °F 12.2 °F 20.1 °F
Punt de rosada: DewpointC °F 6.4 °F 9.4 °F
Humitat: Humidity % 32 % 52 %
Wind Speed: WindSpeedKMH mph 0.0 mph 8.7 mph
RĂ fegues de vent: WindSpeedGustKMH mph - -
Vent:- - WSW
Pression baro: PressurehPa in 1002.9 in -
Precipitacions: 0.0 in    
Historical Graphs
 
 
Dades de taula per May 12, 2017
Temps Temperatura Punt de rosada Pression baro Vent Wind Speed RĂ fegues de vent Humitat Rainfall Rate (Hourly)
TemperatureC °F DewpointC °F PressurehPa in Calm     Humidity % HourlyPrecipMM in
00:01 15.8 °F 12.7 °F 1002.9 in WSW 2.3 mph 2.3 mph 82 % 0.0 in
00:05 12.4 °F 9.8 °F 1003.9 in WSW 1.6 mph 3.2 mph 84 % 0.0 in
00:06 15.9 °F 12.8 °F 1002.9 in WSW 3.7 mph 3.9 mph 82 % 0.0 in
00:11 15.9 °F 12.8 °F 1003.9 in WSW 5.6 mph 5.6 mph 82 % 0.0 in
00:15 12.9 °F 10.1 °F 1003.9 in West 1.6 mph 4.8 mph 83 % 0.0 in
00:25 12.9 °F 9.9 °F 1003.9 in West 1.6 mph 3.2 mph 82 % 0.0 in
00:35 13.4 °F 10.2 °F 1003.9 in West 1.6 mph 3.2 mph 81 % 0.0 in
00:45 13.8 °F 10.2 °F 1003.9 in West 1.6 mph 3.2 mph 79 % 0.0 in
00:55 14.3 °F 10.3 °F 1003.9 in West 3.2 mph 6.4 mph 77 % 0.0 in
01:05 14.3 °F 10.1 °F 1003.9 in WSW 3.2 mph 6.4 mph 76 % 0.0 in
01:15 13.9 °F 9.6 °F 1003.9 in WSW 1.6 mph 1.6 mph 75 % 0.0 in
01:25 13.6 °F 9.2 °F 1003.9 in Calm   1.6 mph 75 % 0.0 in
01:35 13.2 °F 9.1 °F 1003.9 in Calm   1.6 mph 76 % 0.0 in
01:45 12.5 °F 8.8 °F 1003.9 in NE 3.2 mph 4.8 mph 78 % 0.0 in
01:55 12.3 °F 8.6 °F 1003.9 in NE 1.6 mph 3.2 mph 78 % 0.0 in
02:05 12.2 °F 8.7 °F 1003.9 in Calm   1.6 mph 79 % 0.0 in
02:15 12.7 °F 9.3 °F 1003.9 in West 1.6 mph 3.2 mph 80 % 0.0 in
02:25 13.3 °F 9.7 °F 1003.9 in North 1.6 mph 3.2 mph 79 % 0.0 in
02:35 13.6 °F 9.8 °F 1003.9 in NE 1.6 mph 3.2 mph 78 % 0.0 in
02:45 13.9 °F 10.1 °F 1003.9 in East 3.2 mph 3.2 mph 78 % 0.0 in
02:55 14.3 °F 10.3 °F 1003.9 in NE 1.6 mph 3.2 mph 77 % 0.0 in
03:05 14.2 °F 10.2 °F 1003.9 in WSW 1.6 mph 3.2 mph 77 % 0.0 in
03:15 14.6 °F 10.6 °F 1003.9 in SW 1.6 mph 3.2 mph 77 % 0.0 in
03:25 15.5 °F 11.3 °F 1003.9 in SSE 1.6 mph 4.8 mph 76 % 0.0 in
03:35 15.8 °F 11.4 °F 1005.0 in Calm   3.2 mph 75 % 0.0 in
03:45 16.5 °F 11.7 °F 1005.0 in ENE 1.6 mph 4.8 mph 73 % 0.0 in
03:55 17.3 °F 12.0 °F 1005.0 in NNE 1.6 mph 3.2 mph 71 % 0.0 in
04:05 17.8 °F 12.1 °F 1005.0 in North 1.6 mph 1.6 mph 69 % 0.0 in
04:15 18.1 °F 11.9 °F 1005.0 in North 1.6 mph 3.2 mph 67 % 0.0 in
04:25 18.5 °F 12.3 °F 1005.0 in NE 3.2 mph 3.2 mph 67 % 0.0 in
04:35 18.9 °F 12.9 °F 1005.0 in ENE 1.6 mph 4.8 mph 68 % 0.0 in
04:45 19.1 °F 12.4 °F 1005.0 in WSW 4.8 mph 4.8 mph 65 % 0.0 in
04:55 19.3 °F 12.1 °F 1006.0 in WSW 3.2 mph 12.9 mph 63 % 0.0 in
05:05 19.3 °F 11.6 °F 1005.0 in WSW 8.0 mph 8.0 mph 61 % 0.0 in
05:15 19.5 °F 11.3 °F 1005.0 in West 4.8 mph 11.3 mph 59 % 0.0 in
05:25 19.5 °F 10.5 °F 1006.0 in West 11.3 mph 11.3 mph 56 % 0.0 in
10:29 19.5 °F 9.9 °F 1006.0 in NNW 12.2 mph 12.2 mph 54 % 0.0 in
10:34 19.7 °F 9.8 °F 1006.0 in NW 11.1 mph 11.1 mph 53 % 0.0 in
10:39 19.9 °F 10.1 °F 1006.0 in West 10.0 mph 10.0 mph 53 % 0.0 in
10:44 20.2 °F 10.6 °F 1006.0 in WNW 5.6 mph 5.6 mph 54 % 0.0 in
10:49 20.4 °F 10.5 °F 1006.0 in SSE 7.4 mph 7.4 mph 53 % 0.0 in
10:54 20.6 °F 10.7 °F 1006.0 in NW 7.4 mph 7.4 mph 53 % 0.0 in
10:59 20.6 °F 10.7 °F 1006.0 in WSW 14.8 mph 14.8 mph 53 % 0.0 in
11:04 20.6 °F 10.4 °F 1006.0 in West 14.8 mph 14.8 mph 52 % 0.0 in
11:09 21.0 °F 10.8 °F 1006.0 in SW 9.0 mph 9.0 mph 52 % 0.0 in
11:14 20.5 °F 10.0 °F 1006.0 in WNW 13.0 mph 13.0 mph 51 % 0.0 in
11:19 20.7 °F 10.2 °F 1006.0 in SW 11.1 mph 11.1 mph 51 % 0.0 in
11:24 20.9 °F 10.7 °F 1006.0 in WSW 7.4 mph 7.4 mph 52 % 0.0 in
11:29 20.9 °F 10.4 °F 1006.0 in NW 13.0 mph 13.0 mph 51 % 0.0 in
11:34 20.8 °F 10.3 °F 1006.0 in South 9.5 mph 9.5 mph 51 % 0.0 in
11:39 20.9 °F 10.1 °F 1006.0 in West 9.3 mph 9.3 mph 50 % 0.0 in
11:44 21.3 °F 10.4 °F 1006.0 in SW 13.0 mph 13.0 mph 50 % 0.0 in
11:50 21.6 °F 11.0 °F 1006.0 in WSW 10.0 mph 10.0 mph 51 % 0.0 in
11:54 21.6 °F 10.4 °F 1006.0 in WSW 13.0 mph 13.0 mph 49 % 0.0 in
11:59 21.9 °F 10.7 °F 1006.0 in West 16.9 mph 16.9 mph 49 % 0.0 in
12:05 21.9 °F 10.7 °F 1006.0 in SW 9.0 mph 9.0 mph 49 % 0.0 in
12:09 22.2 °F 11.0 °F 1006.0 in SW 11.1 mph 11.1 mph 49 % 0.0 in
12:14 22.4 °F 11.2 °F 1006.0 in WSW 9.7 mph 9.7 mph 49 % 0.0 in
12:19 22.7 °F 11.4 °F 1006.0 in WNW 9.3 mph 9.3 mph 49 % 0.0 in
12:24 23.0 °F 11.4 °F 1006.0 in SW 7.4 mph 7.4 mph 48 % 0.0 in
12:29 23.0 °F 11.1 °F 1006.0 in SW 10.3 mph 10.3 mph 47 % 0.0 in
12:34 22.9 °F 11.0 °F 1006.0 in West 9.3 mph 9.3 mph 47 % 0.0 in
12:39 23.1 °F 10.8 °F 1006.0 in NW 13.0 mph 13.0 mph 46 % 0.0 in
12:45 23.0 °F 10.8 °F 1006.0 in WSW 7.4 mph 7.4 mph 46 % 0.0 in
12:49 23.2 °F 10.6 °F 1006.0 in West 9.3 mph 9.3 mph 45 % 0.0 in
12:54 22.8 °F 9.9 °F 1006.0 in WSW 16.7 mph 16.7 mph 44 % 0.0 in
12:59 23.3 °F 10.3 °F 1006.0 in WSW 14.8 mph 14.8 mph 44 % 0.0 in
13:04 23.5 °F 10.6 °F 1006.0 in WSW 9.3 mph 9.3 mph 44 % 0.0 in
13:09 23.6 °F 10.6 °F 1005.0 in WSW 7.4 mph 7.4 mph 44 % 0.0 in
13:15 23.7 °F 10.7 °F 1005.0 in West 11.1 mph 11.1 mph 44 % 0.0 in
13:19 23.8 °F 10.4 °F 1005.0 in WSW 11.1 mph 11.1 mph 43 % 0.0 in
13:24 23.6 °F 10.3 °F 1005.0 in WSW 7.4 mph 7.4 mph 43 % 0.0 in
13:29 23.6 °F 9.9 °F 1005.0 in WSW 13.0 mph 13.0 mph 42 % 0.0 in
13:34 23.7 °F 10.0 °F 1005.0 in WNW 13.0 mph 13.0 mph 42 % 0.0 in
13:39 24.2 °F 10.5 °F 1006.0 in West 9.3 mph 9.3 mph 42 % 0.0 in
13:44 23.9 °F 9.8 °F 1006.0 in WNW 7.4 mph 7.4 mph 41 % 0.0 in
13:49 24.0 °F 9.9 °F 1006.0 in WSW 9.3 mph 9.3 mph 41 % 0.0 in
13:54 24.5 °F 10.7 °F 1005.0 in WSW 7.4 mph 7.4 mph 42 % 0.0 in
13:59 24.3 °F 10.2 °F 1005.0 in WSW 20.4 mph 20.4 mph 41 % 0.0 in
14:04 24.1 °F 9.7 °F 1005.0 in WSW 9.3 mph 9.3 mph 40 % 0.0 in
14:10 24.2 °F 9.7 °F 1006.0 in WNW 5.8 mph 5.8 mph 40 % 0.0 in
14:14 24.2 °F 9.4 °F 1006.0 in NW 13.0 mph 13.0 mph 39 % 0.0 in
14:20 24.1 °F 9.3 °F 1006.0 in NNW 11.1 mph 11.1 mph 39 % 0.0 in
14:24 24.3 °F 9.4 °F 1006.0 in WNW 5.6 mph 5.6 mph 39 % 0.0 in
14:30 24.4 °F 9.6 °F 1006.0 in SW 9.3 mph 9.3 mph 39 % 0.0 in
14:35 24.3 °F 9.4 °F 1006.0 in West 13.0 mph 13.0 mph 39 % 0.0 in
14:40 24.2 °F 9.4 °F 1006.0 in SSW 11.1 mph 11.1 mph 39 % 0.0 in
14:45 24.2 °F 9.4 °F 1006.0 in SW 9.3 mph 9.3 mph 39 % 0.0 in
14:50 24.4 °F 9.6 °F 1006.0 in WNW 11.1 mph 11.1 mph 39 % 0.0 in
14:55 24.5 °F 9.6 °F 1006.0 in West 9.3 mph 9.3 mph 39 % 0.0 in
15:00 24.6 °F 9.3 °F 1006.0 in WNW 12.6 mph 12.6 mph 38 % 0.0 in
15:05 24.3 °F 8.7 °F 1006.0 in WSW 13.0 mph 13.0 mph 37 % 0.0 in
15:06 24.4 °F 8.8 °F 1006.0 in SW 7.4 mph 7.4 mph 37 % 0.0 in
15:11 24.4 °F 8.3 °F 1006.0 in WSW 9.3 mph 9.3 mph 36 % 0.0 in
15:16 24.3 °F 8.3 °F 1006.0 in North 13.0 mph 13.0 mph 36 % 0.0 in
15:21 24.4 °F 8.3 °F 1006.0 in WSW 16.7 mph 16.7 mph 36 % 0.0 in
15:26 24.0 °F 8.4 °F 1006.0 in WSW 9.3 mph 9.3 mph 37 % 0.0 in
15:31 24.0 °F 8.0 °F 1006.0 in WSW 14.8 mph 14.8 mph 36 % 0.0 in
15:36 24.2 °F 8.2 °F 1006.0 in WSW 10.3 mph 10.3 mph 36 % 0.0 in
15:41 24.7 °F 9.4 °F 1005.0 in WSW 3.9 mph 3.9 mph 38 % 0.0 in
15:46 24.9 °F 8.8 °F 1005.0 in WSW 9.3 mph 9.7 mph 36 % 0.0 in
15:51 25.0 °F 8.9 °F 1005.0 in WSW 11.1 mph 11.1 mph 36 % 0.0 in
15:56 24.7 °F 9.0 °F 1006.0 in SW 9.3 mph 9.3 mph 37 % 0.0 in
16:01 24.8 °F 9.1 °F 1006.0 in WSW 7.4 mph 7.4 mph 37 % 0.0 in
16:06 24.8 °F 8.7 °F 1006.0 in NNW 9.3 mph 9.3 mph 36 % 0.0 in
16:11 25.0 °F 8.4 °F 1006.0 in WSW 9.3 mph 9.3 mph 35 % 0.0 in
16:16 25.3 °F 8.7 °F 1006.0 in WSW 7.4 mph 7.4 mph 35 % 0.0 in
16:21 25.4 °F 8.8 °F 1006.0 in SSW 13.0 mph 13.0 mph 35 % 0.0 in
16:26 25.1 °F 8.1 °F 1006.0 in WNW 9.3 mph 9.3 mph 34 % 0.0 in
16:31 25.3 °F 8.3 °F 1006.0 in WSW 10.0 mph 10.0 mph 34 % 0.0 in
16:33 25.2 °F 7.8 °F 1006.0 in West 9.3 mph 9.3 mph 33 % 0.0 in
16:38 25.3 °F 8.3 °F 1006.0 in SW 9.3 mph 9.3 mph 34 % 0.0 in
16:43 25.4 °F 7.5 °F 1005.0 in SW 11.1 mph 11.1 mph 32 % 0.0 in
16:48 25.3 °F 7.4 °F 1005.0 in South 9.3 mph 9.3 mph 32 % 0.0 in
16:53 25.4 °F 7.9 °F 1005.0 in WNW 11.1 mph 11.1 mph 33 % 0.0 in
16:58 25.0 °F 7.6 °F 1006.0 in SW 13.0 mph 13.0 mph 33 % 0.0 in
17:03 25.0 °F 8.4 °F 1006.0 in WSW 13.0 mph 13.0 mph 35 % 0.0 in
17:08 24.6 °F 9.3 °F 1006.0 in SW 24.1 mph 24.1 mph 38 % 0.0 in
17:13 23.7 °F 8.9 °F 1006.0 in SW 14.8 mph 14.8 mph 39 % 0.0 in
17:18 23.8 °F 9.4 °F 1006.0 in SW 13.0 mph 13.0 mph 40 % 0.0 in
17:23 23.1 °F 8.8 °F 1006.0 in SSW 9.3 mph 9.3 mph 40 % 0.0 in
17:28 23.1 °F 9.1 °F 1006.0 in WSW 24.1 mph 24.1 mph 41 % 0.0 in
17:33 22.8 °F 9.2 °F 1006.0 in SSW 14.8 mph 14.8 mph 42 % 0.0 in
17:38 22.8 °F 9.2 °F 1006.0 in WSW 13.0 mph 13.0 mph 42 % 0.0 in
17:43 22.8 °F 9.2 °F 1006.0 in SW 16.7 mph 16.7 mph 42 % 0.0 in
17:48 22.6 °F 9.1 °F 1006.0 in SW 22.2 mph 22.2 mph 42 % 0.0 in
17:53 22.8 °F 9.2 °F 1006.0 in West 16.7 mph 16.7 mph 42 % 0.0 in
17:58 22.9 °F 9.3 °F 1006.0 in SW 14.8 mph 14.8 mph 42 % 0.0 in
18:03 22.7 °F 9.1 °F 1006.0 in SE 14.8 mph 14.8 mph 42 % 0.0 in
18:08 22.9 °F 9.3 °F 1006.0 in SW 9.3 mph 9.3 mph 42 % 0.0 in
18:13 23.0 °F 9.1 °F 1006.0 in WSW 13.0 mph 13.0 mph 41 % 0.0 in
18:18 23.0 °F 9.1 °F 1006.0 in SW 13.0 mph 13.0 mph 41 % 0.0 in
18:23 22.9 °F 8.9 °F 1006.0 in West 13.0 mph 13.0 mph 41 % 0.0 in
18:28 22.7 °F 8.8 °F 1006.0 in SSW 16.7 mph 16.7 mph 41 % 0.0 in
18:33 22.8 °F 8.8 °F 1006.0 in WSW 18.5 mph 18.5 mph 41 % 0.0 in
18:38 22.9 °F 8.9 °F 1006.0 in SW 13.0 mph 13.0 mph 41 % 0.0 in
18:43 22.8 °F 8.5 °F 1006.0 in West 16.9 mph 16.9 mph 40 % 0.0 in
18:48 22.8 °F 8.5 °F 1006.0 in WSW 9.3 mph 9.3 mph 40 % 0.0 in
18:53 22.7 °F 8.4 °F 1006.0 in WSW 16.7 mph 16.7 mph 40 % 0.0 in
18:58 22.5 °F 8.2 °F 1007.0 in SW 22.2 mph 22.2 mph 40 % 0.0 in
19:03 22.5 °F 8.2 °F 1007.0 in SSW 11.1 mph 11.1 mph 40 % 0.0 in
19:08 22.4 °F 8.1 °F 1007.0 in SW 16.7 mph 16.7 mph 40 % 0.0 in
19:13 22.3 °F 8.1 °F 1007.0 in SSW 19.0 mph 19.0 mph 40 % 0.0 in
19:18 22.2 °F 7.9 °F 1007.0 in SSW 24.1 mph 24.1 mph 40 % 0.0 in
19:23 22.1 °F 7.9 °F 1007.0 in SW 13.0 mph 13.0 mph 40 % 0.0 in
19:28 21.8 °F 7.6 °F 1007.0 in SW 11.1 mph 11.1 mph 40 % 0.0 in
19:33 21.7 °F 7.5 °F 1007.0 in WSW 13.0 mph 13.0 mph 40 % 0.0 in
19:38 21.5 °F 7.3 °F 1007.0 in WSW 20.4 mph 20.4 mph 40 % 0.0 in
19:43 21.2 °F 7.1 °F 1007.0 in SW 14.8 mph 14.8 mph 40 % 0.0 in
19:48 20.9 °F 7.2 °F 1007.0 in SW 11.1 mph 11.1 mph 41 % 0.0 in
19:53 20.8 °F 7.1 °F 1007.0 in SSW 16.7 mph 16.7 mph 41 % 0.0 in
19:58 20.6 °F 6.9 °F 1007.0 in WSW 11.1 mph 11.1 mph 41 % 0.0 in
20:03 20.5 °F 6.4 °F 1007.0 in WSW 9.3 mph 9.3 mph 40 % 0.0 in
20:08 20.4 °F 6.7 °F 1007.0 in West 11.1 mph 11.1 mph 41 % 0.0 in
20:13 20.4 °F 6.7 °F 1008.0 in SW 13.0 mph 13.0 mph 41 % 0.0 in
20:18 20.4 °F 7.1 °F 1008.0 in South 14.8 mph 14.8 mph 42 % 0.0 in
20:23 20.3 °F 7.3 °F 1008.0 in SW 11.1 mph 11.1 mph 43 % 0.0 in
20:28 20.2 °F 7.6 °F 1009.0 in SSW 11.1 mph 11.1 mph 44 % 0.0 in
20:33 20.0 °F 7.7 °F 1009.0 in SW 11.1 mph 11.1 mph 45 % 0.0 in
20:38 19.8 °F 8.2 °F 1009.0 in SW 9.5 mph 9.5 mph 47 % 0.0 in
20:43 19.6 °F 8.3 °F 1008.0 in WSW 11.9 mph 11.9 mph 48 % 0.0 in
20:48 19.5 °F 8.5 °F 1008.0 in SW 9.3 mph 9.3 mph 49 % 0.0 in
20:53 19.3 °F 8.6 °F 1008.0 in West 13.0 mph 13.0 mph 50 % 0.0 in
20:58 19.1 °F 8.7 °F 1008.0 in WSW 13.0 mph 13.0 mph 51 % 0.0 in
21:03 19.0 °F 8.9 °F 1008.0 in SSW 9.3 mph 9.3 mph 52 % 0.0 in
21:08 18.8 °F 9.3 °F 1008.0 in WSW 9.3 mph 9.3 mph 54 % 0.0 in
21:13 18.7 °F 9.2 °F 1009.0 in WSW 9.3 mph 9.3 mph 54 % 0.0 in
21:18 18.5 °F 9.3 °F 1009.0 in WSW 10.0 mph 10.0 mph 55 % 0.0 in
21:23 18.4 °F 9.4 °F 1009.0 in WSW 9.5 mph 9.5 mph 56 % 0.0 in
21:28 18.3 °F 9.4 °F 1009.0 in WSW 9.3 mph 9.3 mph 56 % 0.0 in
21:33 18.2 °F 9.6 °F 1009.0 in SSW 5.6 mph 5.6 mph 57 % 0.0 in
21:38 18.0 °F 9.6 °F 1009.0 in SW 5.6 mph 5.6 mph 58 % 0.0 in
21:43 17.9 °F 9.5 °F 1010.0 in WSW 3.7 mph 3.9 mph 58 % 0.0 in
21:48 17.8 °F 9.4 °F 1010.0 in SSW 5.6 mph 5.6 mph 58 % 0.0 in
21:53 17.7 °F 9.6 °F 1010.0 in WSW 5.6 mph 5.6 mph 59 % 0.0 in
21:58 17.6 °F 9.5 °F 1010.0 in SSW 5.6 mph 5.6 mph 59 % 0.0 in
22:03 17.4 °F 9.3 °F 1010.0 in WSW 7.4 mph 7.4 mph 59 % 0.0 in
22:08 17.3 °F 9.4 °F 1010.0 in SW 5.6 mph 5.6 mph 60 % 0.0 in
22:13 17.2 °F 9.4 °F 1010.0 in SW 7.4 mph 7.4 mph 60 % 0.0 in
22:18 17.1 °F 9.5 °F 1010.0 in WSW 5.6 mph 5.8 mph 61 % 0.0 in
22:23 17.0 °F 9.4 °F 1010.0 in WSW 3.9 mph 3.9 mph 61 % 0.0 in
22:25 14.6 °F 9.0 °F 1010.7 in Calm     69 % 0.0 in
22:28 17.0 °F 9.4 °F 1010.0 in West 5.6 mph 5.6 mph 61 % 0.0 in
22:33 17.0 °F 9.4 °F 1010.0 in WNW 2.3 mph 2.3 mph 61 % 0.0 in
22:35 14.4 °F 8.8 °F 1010.7 in SW 1.6 mph 3.2 mph 69 % 0.0 in
22:39 17.1 °F 9.5 °F 1010.0 in West 5.6 mph 5.6 mph 61 % 0.0 in
22:44 17.0 °F 9.7 °F 1010.0 in WSW 3.7 mph 3.7 mph 62 % 0.0 in
22:45 14.4 °F 8.8 °F 1010.7 in Calm   1.6 mph 69 % 0.0 in
22:49 17.0 °F 9.7 °F 1010.0 in SW 1.9 mph   62 % 0.0 in
22:54 17.0 °F 9.7 °F 1010.0 in West 1.9 mph 1.9 mph 62 % 0.0 in
22:55 14.0 °F 8.4 °F 1010.7 in West 1.6 mph 3.2 mph 69 % 0.0 in
22:59 17.0 °F 9.7 °F 1010.0 in WSW 1.9 mph   62 % 0.0 in
23:04 16.9 °F 9.8 °F 1010.0 in SW 3.7 mph 3.7 mph 63 % 0.0 in
23:05 13.9 °F 8.3 °F 1010.7 in WSW 1.6 mph 4.8 mph 69 % 0.0 in
23:09 16.8 °F 9.9 °F 1010.0 in NW 3.7 mph   64 % 0.0 in
23:14 16.8 °F 9.9 °F 1010.0 in WSW 4.2 mph 4.2 mph 64 % 0.0 in
23:15 14.0 °F 8.6 °F 1010.7 in WSW 1.6 mph 4.8 mph 70 % 0.0 in
23:19 16.7 °F 9.8 °F 1010.0 in SSW 3.7 mph 3.7 mph 64 % 0.0 in
23:24 16.6 °F 9.8 °F 1010.0 in SW 3.7 mph 3.7 mph 64 % 0.0 in
23:25 14.2 °F 8.6 °F 1010.7 in West 3.2 mph 3.2 mph 69 % 0.0 in
23:29 16.3 °F 9.5 °F 1010.0 in SW 3.9 mph 3.9 mph 64 % 0.0 in
23:34 16.0 °F 9.4 °F 1010.0 in SW 3.9 mph 3.9 mph 65 % 0.0 in
23:35 14.0 °F 8.6 °F 1010.7 in WNW 1.6 mph 3.2 mph 70 % 0.0 in
23:39 16.0 °F 9.4 °F 1010.0 in WSW 3.7 mph 3.7 mph 65 % 0.0 in
23:44 16.0 °F 9.4 °F 1010.0 in SW 5.6 mph 5.6 mph 65 % 0.0 in
23:45 14.1 °F 8.7 °F 1010.7 in Calm   3.2 mph 70 % 0.0 in
23:49 16.0 °F 9.7 °F 1010.0 in SW 3.9 mph 3.9 mph 66 % 0.0 in
23:54 16.0 °F 9.7 °F 1010.0 in WSW 6.4 mph 6.4 mph 66 % 0.0 in
23:55 14.2 °F 8.8 °F 1011.7 in Calm   3.2 mph 70 % 0.0 in
23:59 16.1 °F 9.9 °F 1010.7 in WSW 11.1 mph 11.1 mph 67 % 0.0 in
Meteo Sesrovires
Elogis d' Weather Underground - 2 mb

Guio original per  Jim McMurry - jmcmurry@mwt.net Adaptat per a la plantilla per  Wim van der Kuil - Leuven-Template.eu

Trobareu la nostra informacio del temps tambe a:

Weather Underground

AWEKAS